Time;durP1;ratioP1;P1;durP2;ratioP2;P2;SDS_P1;SDS_P2;PMS_P1;PMS_P2;Temp;Humidity;BMP_temperature;BMP_pressure;BME280_temperature;BME280_humidity;BME280_pressure;Samples;Min_cycle;Max_cycle;Signal;HPM_P1;HPM_P2
2023/08/01 00:01:39;;;;;;;7.60;3.10;;;;;;;15.20;100.00;99076.88;5018176;28;20422;-84
2023/08/01 00:04:12;;;;;;;5.97;2.78;;;;;;;15.16;100.00;99069.72;4999718;28;20426;-83
2023/08/01 00:06:41;;;;;;;6.03;2.83;;;;;;;15.15;100.00;99071.66;5000181;28;20431;-85
2023/08/01 00:09:14;;;;;;;5.10;2.60;;;;;;;15.11;100.00;99068.81;5014395;28;20474;-84
2023/08/01 00:11:48;;;;;;;6.70;2.50;;;;;;;15.04;100.00;99062.31;5000128;28;21361;-85
2023/08/01 00:14:16;;;;;;;5.88;2.50;;;;;;;15.00;100.00;99058.69;4999630;28;20467;-85
2023/08/01 00:16:49;;;;;;;4.35;2.20;;;;;;;14.95;100.00;99063.28;4998788;28;20434;-85
2023/08/01 00:19:22;;;;;;;4.57;2.10;;;;;;;14.88;100.00;99060.34;5002563;28;20416;-85
2023/08/01 00:21:56;;;;;;;4.22;1.88;;;;;;;14.87;100.00;99066.19;5002193;28;20418;-85
2023/08/01 00:24:29;;;;;;;2.92;1.70;;;;;;;14.81;100.00;99071.09;5000574;28;20434;-84
2023/08/01 00:27:03;;;;;;;3.35;1.80;;;;;;;14.73;100.00;99061.88;5002714;28;20442;-82
2023/08/01 00:29:36;;;;;;;3.93;1.67;;;;;;;14.66;100.00;99060.91;5018028;28;20435;-85
2023/08/01 00:32:09;;;;;;;3.47;1.60;;;;;;;14.63;100.00;99054.16;4998510;28;20418;-83
2023/08/01 00:34:37;;;;;;;3.42;1.63;;;;;;;14.59;100.00;99050.50;5000895;28;20415;-82
2023/08/01 00:37:13;;;;;;;4.28;1.83;;;;;;;14.57;100.00;99041.81;5005127;28;20886;-86
2023/08/01 00:39:46;;;;;;;4.18;1.67;;;;;;;14.52;100.00;99040.13;5004840;28;20792;-84
2023/08/01 00:42:19;;;;;;;3.80;1.50;;;;;;;14.46;100.00;99034.09;5001842;28;20467;-85
2023/08/01 00:44:54;;;;;;;2.03;1.30;;;;;;;14.47;100.00;99026.69;4999340;28;20452;-85
2023/08/01 00:47:27;;;;;;;4.25;1.70;;;;;;;14.43;100.00;99029.34;4999811;28;20428;-86
2023/08/01 00:50:00;;;;;;;5.13;1.70;;;;;;;14.40;100.00;99015.53;5001814;28;20429;-84
2023/08/01 00:52:35;;;;;;;3.17;1.52;;;;;;;14.44;100.00;99016.44;5012476;28;20440;-85
2023/08/01 00:55:04;;;;;;;2.33;1.30;;;;;;;14.37;100.00;99017.00;4999834;28;20442;-85
2023/08/01 00:57:37;;;;;;;3.75;1.60;;;;;;;14.36;100.00;99015.44;4998588;28;20461;-86
2023/08/01 01:00:11;;;;;;;3.05;1.60;;;;;;;14.44;100.00;99005.47;4996871;28;20448;-84
2023/08/01 01:02:40;;;;;;;3.50;1.48;;;;;;;14.38;100.00;99001.41;5002222;28;20510;-86
2023/08/01 01:05:15;;;;;;;2.42;1.33;;;;;;;14.41;100.00;98993.28;5004190;28;20427;-86
2023/08/01 01:07:50;;;;;;;4.72;1.80;;;;;;;14.42;100.00;98994.09;4996014;28;20440;-85
2023/08/01 01:10:23;;;;;;;3.53;1.60;;;;;;;14.38;100.00;98983.03;5007773;28;20434;-84
2023/08/01 01:12:51;;;;;;;2.83;1.50;;;;;;;14.38;100.00;98990.47;4999048;28;21004;-86
2023/08/01 01:15:24;;;;;;;3.97;1.70;;;;;;;14.34;100.00;98984.09;4998750;28;20431;-86
2023/08/01 01:17:52;;;;;;;4.82;1.60;;;;;;;14.34;100.00;98984.88;4998508;28;20417;-85
2023/08/01 01:20:31;;;;;;;3.95;1.60;;;;;;;14.41;100.00;98968.66;5001901;28;20433;-87
2023/08/01 01:23:06;;;;;;;3.58;1.50;;;;;;;14.38;100.00;98966.63;5001127;28;20779;-84
2023/08/01 01:25:37;;;;;;;5.67;1.90;;;;;;;14.36;100.00;98960.72;5003475;28;20434;-85
2023/08/01 01:28:11;;;;;;;4.35;1.70;;;;;;;14.35;100.00;98958.28;4995746;28;20445;-84
2023/08/01 01:30:45;;;;;;;5.32;1.60;;;;;;;14.38;100.00;98955.66;4996151;28;20414;-87
2023/08/01 01:33:19;;;;;;;5.32;2.08;;;;;;;14.34;100.00;98951.25;4999152;28;20420;-86
2023/08/01 01:35:49;;;;;;;2.57;1.57;;;;;;;14.34;100.00;98959.47;5000173;28;20457;-86
2023/08/01 01:38:18;;;;;;;3.40;1.48;;;;;;;14.42;100.00;98951.09;4998535;28;20968;-86
2023/08/01 01:40:46;;;;;;;5.13;1.60;;;;;;;14.37;100.00;98948.59;5004490;28;20433;-86
2023/08/01 01:43:14;;;;;;;7.43;1.60;;;;;;;14.38;100.00;98954.88;5005614;28;20429;-86
2023/08/01 01:45:47;;;;;;;3.72;1.65;;;;;;;14.42;100.00;98951.09;5001829;28;20418;-85
2023/08/01 01:48:15;;;;;;;6.53;3.42;;;;;;;14.42;100.00;98942.88;5003324;28;20425;-85
2023/08/01 01:50:50;;;;;;;6.40;2.60;;;;;;;14.39;100.00;98938.13;5000984;28;20983;-86
2023/08/01 01:53:23;;;;;;;4.70;1.80;;;;;;;14.43;100.00;98940.94;5016499;28;20427;-85
2023/08/01 01:55:56;;;;;;;4.13;2.00;;;;;;;14.45;100.00;98931.25;5012137;28;20420;-86
2023/08/01 01:58:29;;;;;;;6.82;2.45;;;;;;;14.42;100.00;98925.69;5005314;28;20458;-87
2023/08/01 02:01:02;;;;;;;5.37;2.33;;;;;;;14.39;100.00;98924.44;5000499;28;20499;-83
2023/08/01 02:03:36;;;;;;;4.75;2.20;;;;;;;14.48;100.00;98929.75;5001170;28;20418;-85
2023/08/01 02:06:06;;;;;;;4.70;2.20;;;;;;;14.46;100.00;98915.63;4998841;28;20436;-86
2023/08/01 02:08:39;;;;;;;6.80;2.33;;;;;;;14.48;100.00;98909.81;5011423;28;20436;-85
2023/08/01 02:11:07;;;;;;;5.82;2.33;;;;;;;14.45;100.00;98908.56;4999244;28;20449;-85
2023/08/01 02:13:41;;;;;;;6.38;2.35;;;;;;;14.45;100.00;98903.09;5017970;28;20779;-84
2023/08/01 02:16:14;;;;;;;6.10;2.70;;;;;;;14.44;100.00;98906.97;4999983;28;20426;-86
2023/08/01 02:18:47;;;;;;;7.20;2.92;;;;;;;14.45;100.00;98906.59;5002278;28;20425;-85
2023/08/01 02:21:21;;;;;;;5.82;2.63;;;;;;;14.42;100.00;98892.84;5026003;28;20427;-85
2023/08/01 02:23:54;;;;;;;6.72;3.38;;;;;;;14.43;100.00;98891.69;5004375;28;20422;-86
2023/08/01 02:26:24;;;;;;;8.02;3.35;;;;;;;14.45;100.00;98892.91;5002981;28;20958;-86
2023/08/01 02:28:57;;;;;;;7.10;3.47;;;;;;;14.53;100.00;98885.72;5000385;28;20422;-86
2023/08/01 02:31:25;;;;;;;6.95;3.55;;;;;;;14.51;100.00;98892.69;5000044;28;20416;-85
2023/08/01 02:33:53;;;;;;;7.15;3.58;;;;;;;14.52;100.00;98889.59;5001511;28;20430;-84
2023/08/01 02:36:27;;;;;;;7.87;3.57;;;;;;;14.54;100.00;98889.22;5017736;28;20443;-86
2023/08/01 02:38:56;;;;;;;6.90;3.75;;;;;;;14.54;100.00;98881.03;5005666;28;20415;-86
2023/08/01 02:41:29;;;;;;;10.88;4.13;;;;;;;14.52;100.00;98883.31;5000037;28;20432;-85
2023/08/01 02:44:02;;;;;;;10.40;4.07;;;;;;;14.58;100.00;98882.72;5002783;28;20426;-87
2023/08/01 02:46:35;;;;;;;8.47;3.87;;;;;;;14.58;100.00;98895.59;5006186;28;20432;-85
2023/08/01 02:49:03;;;;;;;8.98;4.18;;;;;;;14.60;100.00;98891.38;5002649;28;20794;-84
2023/08/01 02:51:38;;;;;;;7.63;3.50;;;;;;;14.60;100.00;98880.41;5002232;28;20438;-86
2023/08/01 02:54:11;;;;;;;7.50;4.00;;;;;;;14.66;100.00;98880.97;5004257;28;20440;-85
2023/08/01 02:56:44;;;;;;;10.20;4.43;;;;;;;14.65;100.00;98893.06;5001018;28;20455;-87
2023/08/01 02:59:12;;;;;;;11.05;4.18;;;;;;;14.67;100.00;98887.28;5001319;28;20409;-86
2023/08/01 03:01:46;;;;;;;8.85;4.20;;;;;;;14.67;100.00;98882.59;5004457;28;20445;-86
2023/08/01 03:04:19;;;;;;;10.93;4.40;;;;;;;14.71;100.00;98883.47;5004651;28;21157;-86
2023/08/01 03:06:53;;;;;;;10.45;4.43;;;;;;;14.78;100.00;98883.66;5002770;28;20455;-86
2023/08/01 03:09:21;;;;;;;10.30;4.20;;;;;;;14.73;100.00;98872.16;5004449;28;20427;-86
2023/08/01 03:11:55;;;;;;;8.50;4.10;;;;;;;14.74;100.00;98871.03;5002973;28;20431;-86
2023/08/01 03:14:28;;;;;;;9.27;4.25;;;;;;;14.77;100.00;98862.88;5003513;28;20430;-85
2023/08/01 03:16:56;;;;;;;9.85;4.55;;;;;;;14.75;100.00;98861.66;5008047;28;20433;-85
2023/08/01 03:19:24;;;;;;;9.95;4.60;;;;;;;14.78;100.00;98855.47;5006326;28;20929;-86
2023/08/01 03:22:00;;;;;;;11.55;4.93;;;;;;;14.76;100.00;98858.56;5001557;28;20434;-85
2023/08/01 03:24:34;;;;;;;12.30;4.93;;;;;;;14.77;100.00;98860.13;5009745;28;20424;-83
2023/08/01 03:27:07;;;;;;;9.23;4.60;;;;;;;14.73;100.00;98855.72;5018789;28;20433;-85
2023/08/01 03:29:35;;;;;;;9.45;5.00;;;;;;;14.86;100.00;98865.47;4997388;28;20914;-87
2023/08/01 03:32:04;;;;;;;11.55;4.82;;;;;;;14.89;100.00;98851.06;5002876;28;20483;-86
2023/08/01 03:34:32;;;;;;;10.43;5.37;;;;;;;14.79;100.00;98846.91;5007692;28;20451;-84
2023/08/01 03:37:07;;;;;;;9.70;5.32;;;;;;;14.77;100.00;98842.94;5003264;28;20436;-85
2023/08/01 03:39:40;;;;;;;9.90;5.37;;;;;;;14.75;100.00;98843.28;5002562;28;20473;-84
2023/08/01 03:42:13;;;;;;;10.13;5.78;;;;;;;14.80;100.00;98836.75;5017755;28;20429;-85
2023/08/01 03:44:47;;;;;;;10.90;6.05;;;;;;;14.76;100.00;98842.16;4999529;28;21227;-84
2023/08/01 03:47:15;;;;;;;11.73;5.95;;;;;;;14.73;100.00;98842.03;5003576;28;20429;-83
2023/08/01 03:49:43;;;;;;;9.25;5.47;;;;;;;14.73;100.00;98842.81;5001663;28;20412;-87
2023/08/01 03:52:18;;;;;;;11.52;5.85;;;;;;;14.70;100.00;98840.81;5002262;28;20445;-86
2023/08/01 03:54:55;;;;;;;14.40;5.72;;;;;;;14.73;100.00;98842.81;5006501;28;20980;-84
2023/08/01 03:57:28;;;;;;;13.85;5.90;;;;;;;14.73;100.00;98839.31;5003082;28;20427;-84
2023/08/01 04:00:04;;;;;;;10.98;5.88;;;;;;;14.73;100.00;98833.84;5001094;28;20415;-85
2023/08/01 04:02:39;;;;;;;12.40;6.38;;;;;;;14.75;100.00;98829.59;5007590;28;20423;-83
2023/08/01 04:05:13;;;;;;;12.63;5.97;;;;;;;14.72;100.00;98829.50;4999926;28;20822;-83
2023/08/01 04:07:47;;;;;;;12.35;6.00;;;;;;;14.72;100.00;98829.50;5003594;28;20789;-83
2023/08/01 04:10:20;;;;;;;12.35;5.97;;;;;;;14.77;100.00;98826.50;5023039;28;20449;-84
2023/08/01 04:12:53;;;;;;;11.85;6.15;;;;;;;14.75;100.00;98837.03;5002894;28;21096;-84
2023/08/01 04:15:27;;;;;;;13.38;6.18;;;;;;;14.74;100.00;98825.25;4999517;28;20830;-84
2023/08/01 04:18:00;;;;;;;11.60;6.05;;;;;;;14.79;100.00;98829.69;5006625;28;20932;-84
2023/08/01 04:20:33;;;;;;;11.20;5.83;;;;;;;14.82;100.00;98826.25;5005141;28;20437;-84
2023/08/01 04:23:07;;;;;;;13.80;6.03;;;;;;;14.84;100.00;98825.88;5000679;28;20433;-84
2023/08/01 04:25:41;;;;;;;10.98;6.22;;;;;;;14.85;100.00;98822.00;5005956;28;20413;-83
2023/08/01 04:28:15;;;;;;;12.60;6.20;;;;;;;14.89;100.00;98814.66;5003466;28;20440;-84
2023/08/01 04:30:50;;;;;;;12.43;6.00;;;;;;;14.90;100.00;98813.50;5000347;28;20433;-85
2023/08/01 04:33:19;;;;;;;11.98;6.60;;;;;;;14.88;100.00;98824.03;5005554;28;20864;-84
2023/08/01 04:35:49;;;;;;;10.20;6.13;;;;;;;14.89;100.00;98823.66;5005268;28;20434;-83
2023/08/01 04:38:23;;;;;;;9.63;5.80;;;;;;;14.90;100.00;98830.75;5002840;28;20430;-85
2023/08/01 04:40:56;;;;;;;11.15;6.00;;;;;;;14.92;100.00;98827.66;4998701;28;20425;-85
2023/08/01 04:43:24;;;;;;;13.90;6.50;;;;;;;14.88;100.00;98821.28;5009974;28;20429;-85
2023/08/01 04:45:53;;;;;;;11.82;6.75;;;;;;;14.93;100.00;98823.78;5006459;28;20422;-85
2023/08/01 04:48:21;;;;;;;11.57;6.30;;;;;;;14.97;100.00;98824.66;5003990;28;20410;-83
2023/08/01 04:50:54;;;;;;;11.45;6.15;;;;;;;14.95;100.00;98824.97;5000955;28;20433;-85
2023/08/01 04:53:29;;;;;;;15.10;6.18;;;;;;;14.96;100.00;98823.06;5004184;28;21017;-80
2023/08/01 04:55:57;;;;;;;10.38;5.90;;;;;;;15.07;100.00;98815.09;5001297;28;20429;-83
2023/08/01 04:58:30;;;;;;;10.45;5.75;;;;;;;15.01;100.00;98813.75;5005391;28;20433;-83
2023/08/01 05:00:58;;;;;;;10.37;6.00;;;;;;;15.00;100.00;98820.38;5010015;28;20424;-84
2023/08/01 05:03:31;;;;;;;10.43;5.88;;;;;;;15.03;100.00;98819.69;5001912;28;21151;-86
2023/08/01 05:05:59;;;;;;;11.40;6.40;;;;;;;15.02;100.00;98816.13;5003296;28;20449;-85
2023/08/01 05:08:34;;;;;;;14.95;6.38;;;;;;;15.00;100.00;98818.44;5004546;28;20424;-84
2023/08/01 05:11:02;;;;;;;13.63;6.22;;;;;;;15.06;100.00;98816.25;5007863;28;20401;-83
2023/08/01 05:13:35;;;;;;;12.95;6.38;;;;;;;15.13;100.00;98825.44;5015864;28;20440;-83
2023/08/01 05:16:08;;;;;;;8.70;5.70;;;;;;;15.16;100.00;98812.16;5020851;28;20438;-84
2023/08/01 05:18:42;;;;;;;10.80;6.18;;;;;;;15.23;100.00;98809.56;5002599;28;20434;-85
2023/08/01 05:21:15;;;;;;;10.32;5.93;;;;;;;15.26;100.00;98806.09;5008873;28;20445;-86
2023/08/01 05:23:49;;;;;;;12.03;6.53;;;;;;;15.23;100.00;98804.91;5004703;28;20902;-83
2023/08/01 05:26:17;;;;;;;12.25;6.55;;;;;;;15.25;100.00;98807.28;5005943;28;20417;-84
2023/08/01 05:28:45;;;;;;;11.63;6.40;;;;;;;15.31;100.00;98805.84;5003685;28;20414;-87
2023/08/01 05:31:19;;;;;;;10.98;6.40;;;;;;;15.44;100.00;98804.56;5003901;28;20434;-84
2023/08/01 05:33:52;;;;;;;11.70;6.50;;;;;;;15.44;100.00;98790.09;5006805;28;20436;-86
2023/08/01 05:36:20;;;;;;;13.60;6.07;;;;;;;15.43;100.00;98796.72;4996867;28;20441;-85
2023/08/01 05:38:54;;;;;;;12.10;6.40;;;;;;;15.37;100.00;98807.16;4998225;28;20909;-84
2023/08/01 05:41:28;;;;;;;11.05;6.25;;;;;;;15.39;100.00;98813.06;5002278;28;20407;-84
2023/08/01 05:43:56;;;;;;;12.35;6.18;;;;;;;15.37;100.00;98809.09;5003120;28;20406;-86
2023/08/01 05:46:24;;;;;;;12.90;6.50;;;;;;;15.53;100.00;98811.78;5005825;28;20883;-86
2023/08/01 05:48:57;;;;;;;11.20;6.07;;;;;;;15.48;100.00;98807.41;5005351;28;20469;-85
2023/08/01 05:51:26;;;;;;;12.07;6.10;;;;;;;15.56;100.00;98819.28;5007449;28;20437;-83
2023/08/01 05:53:55;;;;;;;12.20;6.05;;;;;;;15.64;100.00;98816.34;5003125;28;20752;-84
2023/08/01 05:56:24;;;;;;;12.40;6.10;;;;;;;15.47;100.00;98825.78;5007466;28;20435;-84
2023/08/01 05:58:57;;;;;;;13.95;6.45;;;;;;;15.52;100.00;98816.47;5007610;28;20423;-88
2023/08/01 06:01:30;;;;;;;11.98;6.22;;;;;;;15.62;100.00;98820.63;5013530;28;20441;-83
2023/08/01 06:04:04;;;;;;;11.13;6.10;;;;;;;15.50;100.00;98821.53;5000048;28;20442;-85
2023/08/01 06:06:37;;;;;;;13.10;6.43;;;;;;;15.55;100.00;98814.97;4997926;28;20932;-85
2023/08/01 06:09:07;;;;;;;11.57;5.90;;;;;;;15.53;100.00;98817.28;5017885;28;20451;-84
2023/08/01 06:11:40;;;;;;;12.77;6.10;;;;;;;15.52;100.00;98807.47;5004865;28;20447;-84
2023/08/01 06:14:13;;;;;;;12.02;5.43;;;;;;;15.42;100.00;98817.81;4997411;28;20521;-87
2023/08/01 06:16:46;;;;;;;10.90;5.40;;;;;;;15.38;100.00;98813.44;5012693;28;20424;-85
2023/08/01 06:19:14;;;;;;;11.32;5.43;;;;;;;15.47;100.00;98809.34;5001876;28;20441;-85
2023/08/01 06:21:43;;;;;;;8.60;4.60;;;;;;;15.50;100.00;98804.31;5000088;28;20887;-86
2023/08/01 06:24:12;;;;;;;8.38;4.43;;;;;;;15.46;100.00;98810.47;5001222;28;20437;-85
2023/08/01 06:26:45;;;;;;;9.18;4.50;;;;;;;15.64;100.00;98810.84;4997324;28;20434;-84
2023/08/01 06:29:13;;;;;;;7.97;4.07;;;;;;;15.44;100.00;98815.53;5002767;28;20419;-85
2023/08/01 06:31:46;;;;;;;8.25;3.75;;;;;;;15.53;100.00;98809.84;4997706;28;20441;-90
2023/08/01 06:34:20;;;;;;;8.50;3.83;;;;;;;15.42;100.00;98815.09;4998036;28;20410;-85
2023/08/01 06:36:54;;;;;;;8.23;3.60;;;;;;;15.19;100.00;98816.91;4999410;28;20515;-84
2023/08/01 06:39:28;;;;;;;7.47;3.90;;;;;;;15.20;100.00;98813.81;4998959;28;20445;-86
2023/08/01 06:42:02;;;;;;;6.70;3.70;;;;;;;15.25;100.00;98820.97;4999237;28;20438;-85
2023/08/01 06:44:30;;;;;;;6.18;3.58;;;;;;;15.26;100.00;98819.81;5007458;28;20445;-85
2023/08/01 06:47:04;;;;;;;6.57;3.70;;;;;;;15.34;100.00;98818.03;5001046;28;20429;-86
2023/08/01 06:49:37;;;;;;;9.13;3.75;;;;;;;15.43;100.00;98818.63;5000736;28;20458;-85
2023/08/01 06:52:10;;;;;;;7.90;3.70;;;;;;;15.55;100.00;98818.50;5002185;28;20425;-81
2023/08/01 06:54:45;;;;;;;6.78;3.60;;;;;;;15.65;100.00;98812.44;4995012;28;20781;-84
2023/08/01 06:57:18;;;;;;;7.88;4.15;;;;;;;15.59;100.00;98816.66;4996328;28;20447;-88
2023/08/01 06:59:46;;;;;;;9.63;4.50;;;;;;;15.57;100.00;98818.16;4995174;28;20500;-88
2023/08/01 07:02:20;;;;;;;10.93;4.40;;;;;;;15.55;100.00;98821.25;4993266;28;20448;-86
2023/08/01 07:04:48;;;;;;;7.90;4.30;;;;;;;15.73;100.00;98818.88;4999447;28;20430;-88
2023/08/01 07:07:21;;;;;;;8.13;4.40;;;;;;;15.55;100.00;98818.50;5003336;28;21042;-85
2023/08/01 07:09:55;;;;;;;11.27;4.30;;;;;;;15.57;100.00;98818.94;5002861;28;20762;-84
2023/08/01 07:12:28;;;;;;;9.10;4.78;;;;;;;15.62;100.00;98826.09;5007379;28;20442;-83
2023/08/01 07:14:59;;;;;;;11.43;4.80;;;;;;;15.48;100.00;98827.38;5000362;28;20432;-81
2023/08/01 07:17:32;;;;;;;11.13;5.13;;;;;;;15.63;100.00;98823.00;5003611;28;20413;-85
2023/08/01 07:20:00;;;;;;;10.57;4.90;;;;;;;15.77;100.00;98819.75;4998577;28;20424;-85
2023/08/01 07:22:28;;;;;;;8.80;4.70;;;;;;;15.62;100.00;98826.09;4998513;28;20425;-88
2023/08/01 07:25:03;;;;;;;9.52;4.40;;;;;;;15.69;100.00;98830.91;5002180;28;20442;-84
2023/08/01 07:27:37;;;;;;;8.40;4.40;;;;;;;15.63;100.00;98830.41;4996653;28;20429;-87
2023/08/01 07:30:11;;;;;;;13.93;5.20;;;;;;;15.74;100.00;98836.13;5002899;28;21232;-85
2023/08/01 07:32:44;;;;;;;11.57;5.00;;;;;;;15.61;100.00;98830.78;4985069;28;22252;-83
2023/08/01 07:35:13;;;;;;;9.85;4.45;;;;;;;15.50;100.00;98834.44;4971892;28;20569;-85
2023/08/01 07:37:46;;;;;;;9.57;5.13;;;;;;;15.56;100.00;98833.78;4988132;28;20428;-84
2023/08/01 07:40:20;;;;;;;10.43;5.00;;;;;;;15.57;100.00;98843.63;4988513;28;20437;-83
2023/08/01 07:42:49;;;;;;;9.25;4.47;;;;;;;15.80;100.00;98834.72;4981816;28;20440;-82
2023/08/01 07:45:19;;;;;;;8.77;4.63;;;;;;;15.83;100.00;98838.72;4984015;28;20471;-88
2023/08/01 07:47:52;;;;;;;11.00;4.85;;;;;;;15.86;100.00;98841.50;4981425;28;20432;-85
2023/08/01 07:50:20;;;;;;;11.23;4.80;;;;;;;15.74;100.00;98849.84;4983091;28;20424;-83
2023/08/01 07:52:53;;;;;;;8.95;4.88;;;;;;;15.64;100.00;98857.47;4986584;28;20433;-86
2023/08/01 07:55:28;;;;;;;9.43;4.97;;;;;;;15.69;100.00;98844.63;4973406;28;20440;-82
2023/08/01 07:58:01;;;;;;;9.15;4.55;;;;;;;15.47;100.00;98841.44;4979413;28;20436;-83
2023/08/01 08:00:35;;;;;;;10.20;5.20;;;;;;;15.76;100.00;98842.84;4982045;28;20429;-82
2023/08/01 08:03:05;;;;;;;12.05;4.68;;;;;;;15.71;100.00;98847.81;4983098;28;20441;-85
2023/08/01 08:05:39;;;;;;;10.80;4.80;;;;;;;15.82;100.00;98843.38;4986464;28;20443;-81
2023/08/01 08:08:07;;;;;;;9.30;4.30;;;;;;;15.88;100.00;98844.69;4974327;28;20447;-81
2023/08/01 08:10:42;;;;;;;9.48;4.35;;;;;;;15.95;100.00;98841.28;4974105;28;20436;-83
2023/08/01 08:13:15;;;;;;;9.50;4.47;;;;;;;15.76;100.00;98848.31;4972685;28;20436;-82
2023/08/01 08:15:48;;;;;;;8.95;4.32;;;;;;;15.73;100.00;98851.81;4975328;28;20451;-83
2023/08/01 08:18:21;;;;;;;10.68;4.60;;;;;;;15.73;100.00;98848.25;4975994;28;20510;-82
2023/08/01 08:20:54;;;;;;;12.80;5.05;;;;;;;15.87;100.00;98854.06;4976717;28;20436;-81
2023/08/01 08:23:28;;;;;;;12.73;5.10;;;;;;;16.01;100.00;98855.53;4980265;28;20432;-81
2023/08/01 08:26:04;;;;;;;9.18;4.68;;;;;;;16.13;100.00;98849.91;4984157;28;20448;-81
2023/08/01 08:28:39;;;;;;;10.13;4.15;;;;;;;16.03;100.00;98853.22;4976773;28;20436;-86
2023/08/01 08:31:12;;;;;;;11.50;4.30;;;;;;;16.09;100.00;98866.28;4979784;28;20444;-80
2023/08/01 08:33:41;;;;;;;9.40;4.30;;;;;;;16.22;100.00;98858.69;4975759;28;22299;-87
2023/08/01 08:36:14;;;;;;;10.00;4.35;;;;;;;16.53;100.00;98859.66;4974124;28;20786;-81
2023/08/01 08:38:47;;;;;;;8.02;4.15;;;;;;;16.45;100.00;98866.97;4979368;28;20436;-84
2023/08/01 08:41:24;;;;;;;11.27;4.30;;;;;;;16.52;100.00;98862.75;4989394;28;20440;-85
2023/08/01 08:43:58;;;;;;;10.93;4.00;;;;;;;16.63;100.00;98861.78;4981760;28;20498;-81
2023/08/01 08:46:34;;;;;;;8.68;3.80;;;;;;;16.33;100.00;98872.63;4981851;28;20436;-82
2023/08/01 08:49:08;;;;;;;12.07;4.07;;;;;;;16.31;100.00;98877.69;4981161;28;20858;-81
2023/08/01 08:51:37;;;;;;;11.95;4.32;;;;;;;16.30;100.00;98878.84;4977197;28;20439;-88
2023/08/01 08:54:12;;;;;;;10.05;4.00;;;;;;;16.43;100.00;98882.22;4974321;28;20448;-84
2023/08/01 08:56:47;;;;;;;12.07;4.07;;;;;;;16.47;100.00;98885.81;4977771;28;20440;-84
2023/08/01 08:59:15;;;;;;;9.87;4.33;;;;;;;16.71;100.00;98878.41;4976466;28;21829;-81
2023/08/01 09:01:49;;;;;;;9.88;4.35;;;;;;;16.71;100.00;98887.44;4974029;28;20440;-84
2023/08/01 09:04:22;;;;;;;10.50;4.60;;;;;;;16.67;100.00;98883.84;4975946;28;20440;-82
2023/08/01 09:07:02;;;;;;;9.98;4.40;;;;;;;16.66;100.00;98882.25;4979968;28;20853;-84
2023/08/01 09:09:36;;;;;;;9.88;4.70;;;;;;;16.64;100.00;98873.56;4983678;28;20783;-85
2023/08/01 09:12:11;;;;;;;9.07;3.97;;;;;;;16.78;100.00;98875.81;4980837;28;21248;-83
2023/08/01 09:14:39;;;;;;;11.20;4.32;;;;;;;16.55;100.00;98878.53;4975193;28;20448;-81
2023/08/01 09:17:09;;;;;;;12.23;4.43;;;;;;;16.52;100.00;98884.72;4977561;28;20462;-82
2023/08/01 09:19:42;;;;;;;12.93;4.90;;;;;;;16.56;100.00;98874.59;4975879;28;20429;-79
2023/08/01 09:22:18;;;;;;;11.07;4.80;;;;;;;16.62;100.00;98870.41;4971412;28;20451;-82
2023/08/01 09:24:53;;;;;;;9.70;4.63;;;;;;;16.40;100.00;98874.72;4977405;28;20443;-86
2023/08/01 09:27:34;;;;;;;9.00;4.27;;;;;;;16.27;100.00;98883.09;4979420;28;20436;-83
2023/08/01 09:30:09;;;;;;;11.40;4.68;;;;;;;16.14;100.00;98887.94;4979741;28;20428;-85
2023/08/01 09:32:52;;;;;;;12.65;4.80;;;;;;;16.24;100.00;98880.28;4956153;28;20451;-84
2023/08/01 09:35:25;;;;;;;11.85;4.47;;;;;;;16.62;100.00;98882.19;4977055;28;20436;-79
2023/08/01 09:37:54;;;;;;;9.20;4.68;;;;;;;16.83;100.00;98862.53;4973903;28;20432;-80
2023/08/01 09:40:37;;;;;;;9.17;4.40;;;;;;;17.40;100.00;98859.16;4973140;28;21350;-83
2023/08/01 09:43:12;;;;;;;8.93;4.30;;;;;;;17.47;100.00;98859.25;4981789;28;20432;-83
2023/08/01 09:45:52;;;;;;;10.65;4.43;;;;;;;17.62;100.00;98854.75;4978772;28;21092;-84
2023/08/01 09:48:27;;;;;;;10.88;4.07;;;;;;;17.65;100.00;98850.47;4977712;28;21049;-80
2023/08/01 09:51:10;;;;;;;9.48;4.30;;;;;;;17.68;100.00;98849.72;4980498;28;21979;-84
2023/08/01 09:53:49;;;;;;;8.88;4.07;;;;;;;17.98;100.00;98866.25;4975945;28;20436;-83
2023/08/01 09:56:21;;;;;;;9.35;4.35;;;;;;;17.65;100.00;98858.72;4992760;28;21024;-80
2023/08/01 09:58:57;;;;;;;8.13;3.95;;;;;;;17.65;100.00;98856.75;4981677;28;20449;-81
2023/08/01 10:01:32;;;;;;;8.23;4.20;;;;;;;17.92;100.00;98842.16;4977498;28;20448;-83
2023/08/01 10:04:08;;;;;;;11.05;5.03;;;;;;;17.88;100.00;98846.81;4979061;28;20432;-83
2023/08/01 10:06:47;;;;;;;7.90;4.10;;;;;;;17.55;100.00;98842.84;4976375;28;20438;-80
2023/08/01 10:09:22;;;;;;;9.93;4.40;;;;;;;17.28;100.00;98848.34;4978717;28;20428;-83
2023/08/01 10:11:58;;;;;;;9.68;4.57;;;;;;;17.25;100.00;98855.38;4979324;28;20436;-84
2023/08/01 10:14:33;;;;;;;9.93;4.78;;;;;;;17.43;100.00;98844.66;4978147;28;20439;-79
2023/08/01 10:17:07;;;;;;;9.55;4.55;;;;;;;17.60;100.00;98840.56;4972803;28;21060;-83
2023/08/01 10:19:36;;;;;;;9.83;4.63;;;;;;;17.71;100.00;98837.16;4996314;28;20424;-81
2023/08/01 10:22:06;;;;;;;8.02;4.45;;;;;;;18.15;100.00;98836.56;4980263;28;20680;-79
2023/08/01 10:24:41;;;;;;;7.95;3.92;;;;;;;18.06;100.00;98842.31;4978791;28;20432;-79
2023/08/01 10:27:15;;;;;;;7.50;3.20;;;;;;;17.83;100.00;98847.94;4974189;28;20447;-81
2023/08/01 10:29:58;;;;;;;6.68;2.80;;;;;;;18.36;100.00;98855.25;4981886;28;20435;-80
2023/08/01 10:32:33;;;;;;;5.65;2.55;;;;;;;18.10;100.00;98859.69;4954426;28;20444;-80
2023/08/01 10:35:02;;;;;;;5.13;2.50;;;;;;;18.26;100.00;98864.22;4982701;28;20454;-83
2023/08/01 10:37:42;;;;;;;4.83;2.17;;;;;;;18.37;100.00;98867.88;4978756;28;20432;-81
2023/08/01 10:40:15;;;;;;;7.13;2.35;;;;;;;18.43;100.00;98862.81;4981236;28;20696;-81
2023/08/01 10:42:50;;;;;;;5.47;2.55;;;;;;;18.30;100.00;98870.53;4987578;28;20429;-78
2023/08/01 10:45:24;;;;;;;4.30;2.50;;;;;;;18.23;100.00;98851.97;4982768;28;20448;-85
2023/08/01 10:48:08;;;;;;;4.85;2.10;;;;;;;17.79;100.00;98867.16;4981144;28;20437;-85
2023/08/01 10:50:36;;;;;;;5.72;1.90;;;;;;;17.56;100.00;98861.72;4993656;28;20844;-84
2023/08/01 10:53:10;;;;;;;7.82;2.40;;;;;;;17.87;100.00;98856.22;4984668;28;20945;-81
2023/08/01 10:55:43;;;;;;;5.70;1.98;;;;;;;17.74;100.00;98869.44;4985317;28;20436;-81
2023/08/01 10:58:12;;;;;;;6.13;2.10;;;;;;;18.12;100.00;98865.63;4980261;28;20425;-82
2023/08/01 11:00:46;;;;;;;5.70;2.10;;;;;;;18.05;100.00;98868.28;4986261;28;20436;-82
2023/08/01 11:03:20;;;;;;;4.55;1.98;;;;;;;18.11;100.00;98869.53;4983560;28;20431;-81
2023/08/01 11:05:58;;;;;;;5.07;2.03;;;;;;;18.52;100.00;98863.31;4980069;28;20432;-81
2023/08/01 11:08:35;;;;;;;4.38;2.10;;;;;;;18.55;100.00;98867.25;4981607;28;20424;-82
2023/08/01 11:11:11;;;;;;;3.58;1.80;;;;;;;18.72;100.00;98865.84;4984583;28;20444;-80
2023/08/01 11:13:51;;;;;;;4.55;2.22;;;;;;;18.69;100.00;98859.91;4978206;28;20425;-80
2023/08/01 11:16:21;;;;;;;3.63;2.00;;;;;;;18.13;100.00;98860.91;4977824;28;20443;-81
2023/08/01 11:18:50;;;;;;;5.32;2.40;;;;;;;18.00;100.00;98865.88;4983882;28;20924;-82
2023/08/01 11:21:27;;;;;;;5.53;2.13;;;;;;;18.37;100.00;98873.38;4982832;28;20431;-83
2023/08/01 11:24:00;;;;;;;5.15;2.05;;;;;;;18.60;100.00;98861.41;4981679;28;20504;-83
2023/08/01 11:26:33;;;;;;;6.00;2.30;;;;;;;19.11;100.00;98860.72;4987077;28;20455;-80
2023/08/01 11:29:03;;;;;;;4.50;1.80;;;;;;;19.31;100.00;98863.22;4989198;28;21362;-81
2023/08/01 11:31:37;;;;;;;4.30;1.83;;;;;;;19.30;100.00;98851.38;4981108;28;20429;-81
2023/08/01 11:34:11;;;;;;;8.35;3.58;;;;;;;19.14;100.00;98848.91;4948895;28;20444;-82
2023/08/01 11:36:45;;;;;;;6.00;2.40;;;;;;;18.78;100.00;98850.53;4983666;28;20490;-82
2023/08/01 11:39:15;;;;;;;8.90;4.10;;;;;;;18.79;100.00;98855.66;4984790;28;20990;-84
2023/08/01 11:41:49;;;;;;;4.60;1.65;;;;;;;18.58;100.00;98863.75;4984611;28;20442;-82
2023/08/01 11:44:17;;;;;;;5.43;2.15;;;;;;;18.43;100.00;98857.31;4985586;28;20492;-85
2023/08/01 11:46:47;;;;;;;3.83;1.70;;;;;;;18.36;100.00;98856.03;4975000;28;20436;-80